Canaan, Indiana
Current Conditions -  °F | °C
As of 8:52 AM on Monday 24 Nov 2014 (Local Time) from KCVG Reporting Station
Overcast Overcast  
Wind Chill: 61°   Ceiling: 4400
Heat Index: 61°   Visibility: 10mi
Dew Point: 48°   Wind: 29mph
Humidity: 62%   Direction: 200°SSW
Pressure: 29.32"   Gusts: 40mph
Location:  38.87°N, 85.3°W
Report Text: KCVG 241352Z 20025G35KT 10SM SCT035 BKN044 OVC050 16/09 A2932 RMK AO2 PK WND 20037/1333 SLP921 BINOVC T01610089
Loading
Personal Weather Stations






























Interactive Weather Map New forecast layout! Learn more

10-Day Weather Forecast

Advertisements
Track Severe Weather on mobile